createdAt,value
2019-04-06T00:01:58.036Z,3.85
2019-04-06T00:04:31.946Z,3.97
2019-04-06T00:07:06.028Z,3.94
2019-04-06T00:09:39.115Z,3.99
2019-04-06T00:12:11.838Z,3.98
2019-04-06T00:14:45.099Z,4.07
2019-04-06T00:17:17.574Z,4.20
2019-04-06T00:19:50.670Z,4.27
2019-04-06T00:22:25.087Z,4.43
2019-04-06T00:24:59.135Z,4.36
2019-04-06T00:27:32.703Z,4.21
2019-04-06T00:30:04.743Z,4.18
2019-04-06T00:32:45.231Z,4.04
2019-04-06T00:35:18.381Z,4.05
2019-04-06T00:37:51.152Z,4.20
2019-04-06T00:40:24.115Z,3.99
2019-04-06T00:42:57.430Z,4.00
2019-04-06T00:45:30.808Z,4.03
2019-04-06T00:48:03.783Z,3.84
2019-04-06T00:50:36.606Z,3.87
2019-04-06T00:53:09.420Z,3.79
2019-04-06T00:55:42.774Z,3.71
2019-04-06T00:58:15.603Z,3.70
2019-04-06T01:00:49.602Z,3.61
2019-04-06T01:03:23.337Z,3.61
2019-04-06T01:05:56.894Z,3.53
2019-04-06T01:08:28.560Z,3.55
2019-04-06T01:11:03.571Z,3.55
2019-04-06T01:13:36.992Z,3.46
2019-04-06T01:16:09.478Z,3.45
2019-04-06T01:18:42.692Z,3.58
2019-04-06T01:21:13.817Z,3.51
2019-04-06T01:23:46.820Z,3.49
2019-04-06T01:26:20.876Z,3.57
2019-04-06T01:28:54.547Z,3.62
2019-04-06T01:31:28.685Z,3.71
2019-04-06T01:34:02.452Z,3.74
2019-04-06T01:36:36.318Z,3.77
2019-04-06T01:39:09.007Z,3.96
2019-04-06T01:41:41.765Z,4.04
2019-04-06T01:44:14.942Z,4.14
2019-04-06T01:46:47.329Z,4.08
2019-04-06T01:49:20.121Z,4.20
2019-04-06T01:51:53.492Z,4.33
2019-04-06T01:54:27.650Z,4.28
2019-04-06T01:57:00.986Z,4.34
2019-04-06T01:59:34.595Z,4.37
2019-04-06T02:02:12.194Z,4.29
2019-04-06T02:04:45.979Z,4.31
2019-04-06T02:07:19.682Z,4.37
2019-04-06T02:09:53.099Z,4.30
2019-04-06T02:12:26.283Z,4.25
2019-04-06T02:14:59.697Z,4.21
2019-04-06T02:17:33.222Z,4.28
2019-04-06T02:20:06.674Z,4.36
2019-04-06T02:22:39.606Z,4.35
2019-04-06T02:25:11.290Z,4.33
2019-04-06T02:27:44.317Z,4.32
2019-04-06T02:30:39.902Z,4.32
2019-04-06T02:33:24.598Z,4.20
2019-04-06T02:36:14.809Z,4.08
2019-04-06T02:39:15.729Z,4.10
2019-04-06T02:42:05.213Z,4.05
2019-04-06T02:44:39.316Z,4.03
2019-04-06T02:47:12.437Z,4.03
2019-04-06T02:49:46.140Z,3.99
2019-04-06T02:52:20.192Z,4.06
2019-04-06T02:54:53.337Z,3.97
2019-04-06T02:57:26.939Z,3.93
2019-04-06T03:00:01.409Z,4.07
2019-04-06T03:02:34.417Z,3.93
2019-04-06T03:05:07.929Z,3.91
2019-04-06T03:07:41.365Z,4.00
2019-04-06T03:10:14.560Z,3.99
2019-04-06T03:12:47.848Z,4.29
2019-04-06T03:15:20.919Z,4.19
2019-04-06T03:17:54.325Z,4.14
2019-04-06T03:20:27.895Z,4.17
2019-04-06T03:22:59.927Z,4.18
2019-04-06T03:25:32.664Z,4.28
2019-04-06T03:28:06.105Z,4.46
2019-04-06T03:30:39.512Z,4.38
2019-04-06T03:33:12.262Z,4.49
2019-04-06T03:35:48.888Z,4.55
2019-04-06T03:38:21.179Z,4.58
2019-04-06T03:40:54.449Z,4.45
2019-04-06T03:43:27.334Z,4.61
2019-04-06T03:46:00.823Z,4.72
2019-04-06T03:48:34.829Z,4.79
2019-04-06T03:51:07.890Z,4.83
2019-04-06T03:53:41.320Z,4.83
2019-04-06T03:56:14.753Z,4.83
2019-04-06T03:58:48.103Z,4.89
2019-04-06T04:01:22.168Z,4.92
2019-04-06T04:03:55.807Z,4.93
2019-04-06T04:06:28.870Z,4.94
2019-04-06T04:09:02.279Z,4.91
2019-04-06T04:11:35.967Z,4.90
2019-04-06T04:14:09.549Z,4.83
2019-04-06T04:16:41.022Z,4.91
2019-04-06T04:19:14.483Z,4.92
2019-04-06T04:21:47.850Z,4.96
2019-04-06T04:24:21.154Z,4.94
2019-04-06T04:26:54.555Z,4.79
2019-04-06T04:29:27.822Z,4.87
2019-04-06T04:32:01.852Z,4.83
2019-04-06T04:34:35.240Z,4.81
2019-04-06T04:37:09.008Z,4.76
2019-04-06T04:39:42.536Z,4.72
2019-04-06T04:42:14.755Z,4.62
2019-04-06T04:44:47.733Z,4.56
2019-04-06T04:47:21.707Z,4.53
2019-04-06T04:49:56.099Z,4.37
2019-04-06T04:52:29.846Z,4.32
2019-04-06T04:55:03.286Z,4.16
2019-04-06T04:57:41.211Z,4.24
2019-04-06T05:00:12.374Z,4.20
2019-04-06T05:02:46.021Z,4.06
2019-04-06T05:05:20.100Z,4.03
2019-04-06T05:07:53.122Z,4.03
2019-04-06T05:10:26.872Z,4.01
2019-04-06T05:13:00.293Z,3.92
2019-04-06T05:16:22.434Z,3.98
2019-04-06T05:18:56.253Z,3.87
2019-04-06T05:21:30.004Z,3.86
2019-04-06T05:24:03.471Z,3.84
2019-04-06T05:26:37.912Z,3.80
2019-04-06T05:29:11.460Z,3.86
2019-04-06T05:31:44.743Z,3.91
2019-04-06T05:34:16.161Z,3.88
2019-04-06T05:36:49.891Z,3.69
2019-04-06T05:39:26.938Z,3.73
2019-04-06T05:42:00.199Z,3.76
2019-04-06T05:44:34.145Z,3.98
2019-04-06T05:47:07.766Z,4.08
2019-04-06T05:49:39.744Z,4.26
2019-04-06T05:52:12.321Z,4.47
2019-04-06T05:54:45.352Z,4.58
2019-04-06T05:57:18.562Z,4.68
2019-04-06T05:59:52.505Z,4.88
2019-04-06T06:02:25.765Z,4.99
2019-04-06T06:05:00.793Z,5.08
2019-04-06T06:07:33.301Z,5.15
2019-04-06T06:10:06.376Z,5.38
2019-04-06T06:12:39.570Z,5.44
2019-04-06T06:15:14.485Z,5.62
2019-04-06T06:17:47.614Z,5.65
2019-04-06T06:20:20.809Z,5.68
2019-04-06T06:22:55.767Z,5.65
2019-04-06T06:25:28.767Z,5.77
2019-04-06T06:28:01.608Z,5.79
2019-04-06T06:30:35.405Z,5.86
2019-04-06T06:33:09.637Z,5.91
2019-04-06T06:35:44.355Z,6.10
2019-04-06T06:38:19.500Z,6.20
2019-04-06T06:41:06.586Z,6.15
2019-04-06T06:43:45.052Z,6.19
2019-04-06T06:46:17.443Z,6.29
2019-04-06T06:48:53.408Z,6.21
2019-04-06T06:51:26.782Z,6.33
2019-04-06T06:54:01.154Z,6.37
2019-04-06T06:56:34.549Z,6.45
2019-04-06T06:59:09.060Z,6.55
2019-04-06T07:01:42.611Z,6.81
2019-04-06T07:04:14.846Z,6.92
2019-04-06T07:06:48.332Z,6.86
2019-04-06T07:09:21.328Z,6.85
2019-04-06T07:11:56.577Z,6.80
2019-04-06T07:14:29.738Z,7.17
2019-04-06T07:17:03.198Z,7.16
2019-04-06T07:19:37.338Z,7.20
2019-04-06T07:22:11.596Z,7.31
2019-04-06T07:24:44.899Z,7.69
2019-04-06T07:27:18.645Z,7.91
2019-04-06T07:29:52.344Z,8.06
2019-04-06T07:32:25.997Z,8.27
2019-04-06T07:35:03.294Z,8.53
2019-04-06T07:37:35.993Z,8.64
2019-04-06T07:40:09.400Z,8.68
2019-04-06T07:42:43.951Z,8.69
2019-04-06T07:45:17.579Z,8.86
2019-04-06T07:47:51.291Z,8.98
2019-04-06T07:50:24.479Z,9.28
2019-04-06T07:52:58.192Z,9.53
2019-04-06T07:55:32.003Z,9.47
2019-04-06T07:58:04.832Z,9.55
2019-04-06T08:00:38.290Z,9.79
2019-04-06T08:03:12.606Z,10.08
2019-04-06T08:05:46.465Z,10.29
2019-04-06T08:08:20.399Z,10.80
2019-04-06T08:10:53.833Z,10.79
2019-04-06T08:13:25.231Z,11.04
2019-04-06T08:16:09.808Z,11.19
2019-04-06T08:18:46.386Z,11.34
2019-04-06T08:21:20.375Z,11.57
2019-04-06T08:23:54.055Z,11.71
2019-04-06T08:26:27.435Z,11.24
2019-04-06T08:29:02.574Z,11.48
2019-04-06T08:31:50.133Z,11.96
2019-04-06T08:34:24.203Z,11.69
2019-04-06T08:36:56.854Z,12.20
2019-04-06T08:39:30.541Z,12.55
2019-04-06T08:42:03.681Z,12.56
2019-04-06T08:44:37.696Z,13.18
2019-04-06T08:47:11.724Z,13.04
2019-04-06T08:49:44.853Z,12.99
2019-04-06T08:52:19.818Z,13.45
2019-04-06T08:54:54.082Z,14.10
2019-04-06T08:57:28.184Z,14.19
2019-04-06T09:00:01.752Z,14.67
2019-04-06T09:02:35.339Z,14.72
2019-04-06T09:05:08.953Z,14.69
2019-04-06T09:07:42.450Z,15.15
2019-04-06T09:10:16.161Z,15.26
2019-04-06T09:12:49.169Z,15.36
2019-04-06T09:15:22.881Z,16.03
2019-04-06T09:17:56.860Z,16.47
2019-04-06T09:20:29.976Z,16.30
2019-04-06T09:23:01.764Z,16.48
2019-04-06T09:25:34.912Z,16.10
2019-04-06T09:28:08.219Z,15.91
2019-04-06T09:30:41.592Z,16.08
2019-04-06T09:33:14.962Z,16.61
2019-04-06T09:35:47.946Z,17.15
2019-04-06T09:38:21.180Z,18.08
2019-04-06T09:40:54.716Z,16.89
2019-04-06T09:43:27.987Z,17.10
2019-04-06T09:46:15.257Z,16.87
2019-04-06T09:49:03.792Z,17.38
2019-04-06T09:52:00.546Z,16.77
2019-04-06T09:54:43.370Z,17.77
2019-04-06T09:57:39.339Z,17.37
2019-04-06T10:00:49.328Z,17.05
2019-04-06T10:03:43.250Z,16.03
2019-04-06T10:06:44.652Z,16.92
2019-04-06T10:09:29.339Z,17.84
2019-04-06T10:12:27.611Z,16.86
2019-04-06T10:15:25.295Z,16.40
2019-04-06T10:18:17.332Z,18.30
2019-04-06T10:21:12.572Z,18.47
2019-04-06T10:24:07.606Z,18.85
2019-04-06T10:26:57.149Z,19.14
2019-04-06T10:29:48.965Z,18.50
2019-04-06T10:32:56.040Z,18.52
2019-04-06T10:36:03.179Z,18.35
2019-04-06T10:38:54.685Z,19.23
2019-04-06T10:41:43.290Z,20.39
2019-04-06T10:44:26.283Z,20.94
2019-04-06T10:47:13.084Z,20.62
2019-04-06T10:50:11.618Z,19.74
2019-04-06T10:52:50.683Z,19.04
2019-04-06T10:55:51.617Z,20.24
2019-04-06T10:58:40.168Z,19.22
2019-04-06T11:01:39.848Z,20.05
2019-04-06T11:04:23.842Z,20.02
2019-04-06T11:07:22.191Z,20.59
2019-04-06T11:10:09.925Z,19.79
2019-04-06T11:12:56.982Z,20.68
2019-04-06T11:16:03.621Z,19.43
2019-04-06T11:19:11.216Z,20.59
2019-04-06T11:22:06.319Z,21.45
2019-04-06T11:24:57.443Z,22.01
2019-04-06T11:27:49.410Z,21.60
2019-04-06T11:30:47.980Z,21.83
2019-04-06T11:33:36.051Z,21.23
2019-04-06T11:36:27.736Z,21.37
2019-04-06T11:39:13.950Z,21.41
2019-04-06T11:42:05.556Z,22.07
2019-04-06T11:44:57.348Z,22.23
2019-04-06T11:47:53.629Z,21.85
2019-04-06T11:50:44.613Z,22.27
2019-04-06T11:53:38.638Z,21.36
2019-04-06T11:56:23.998Z,21.46
2019-04-06T11:59:06.272Z,23.00
2019-04-06T12:01:57.223Z,21.14
2019-04-06T12:04:45.451Z,21.38
2019-04-06T12:07:39.594Z,21.16
2019-04-06T12:10:27.024Z,21.57
2019-04-06T12:13:14.969Z,21.36
2019-04-06T12:15:59.109Z,21.24
2019-04-06T12:18:51.624Z,21.10
2019-04-06T12:21:55.359Z,21.45
2019-04-06T12:24:46.512Z,20.82
2019-04-06T12:27:37.666Z,20.20
2019-04-06T12:30:37.427Z,20.42
2019-04-06T12:33:30.115Z,20.45
2019-04-06T12:36:27.884Z,20.36
2019-04-06T12:39:22.943Z,20.07
2019-04-06T12:42:17.367Z,19.87
2019-04-06T12:44:56.995Z,19.92
2019-04-06T12:47:51.586Z,20.67
2019-04-06T12:50:43.873Z,21.08
2019-04-06T12:53:35.146Z,21.19
2019-04-06T12:56:17.996Z,21.81
2019-04-06T12:59:21.443Z,21.94
2019-04-06T13:02:23.138Z,22.59
2019-04-06T13:05:20.719Z,22.60
2019-04-06T13:08:08.873Z,23.78
2019-04-06T13:10:50.974Z,22.50
2019-04-06T13:13:49.281Z,22.81
2019-04-06T13:16:40.677Z,22.71
2019-04-06T13:19:41.603Z,21.54
2019-04-06T13:22:32.179Z,20.48
2019-04-06T13:25:18.500Z,20.85
2019-04-06T13:28:14.403Z,20.89
2019-04-06T13:31:02.979Z,20.32
2019-04-06T13:33:54.745Z,20.07
2019-04-06T13:36:45.553Z,21.29
2019-04-06T13:39:49.700Z,20.95
2019-04-06T13:42:28.025Z,21.38
2019-04-06T13:45:14.960Z,22.48
2019-04-06T13:48:00.713Z,22.12
2019-04-06T13:50:51.954Z,20.35
2019-04-06T13:53:43.522Z,21.87
2019-04-06T13:56:32.808Z,22.31
2019-04-06T13:59:12.585Z,22.62
2019-04-06T14:02:14.110Z,21.92
2019-04-06T14:05:02.367Z,21.74
2019-04-06T14:07:58.074Z,22.39
2019-04-06T14:10:40.082Z,21.76
2019-04-06T14:13:27.138Z,21.84
2019-04-06T14:16:21.296Z,21.34
2019-04-06T14:19:22.012Z,21.07
2019-04-06T14:22:09.979Z,20.67
2019-04-06T14:25:00.589Z,20.81
2019-04-06T14:27:44.791Z,20.31
2019-04-06T14:30:39.263Z,19.27
2019-04-06T14:33:34.336Z,19.23
2019-04-06T14:36:29.640Z,21.58
2019-04-06T14:39:20.908Z,22.94
2019-04-06T14:42:11.780Z,22.07
2019-04-06T14:45:19.196Z,20.44
2019-04-06T14:48:10.296Z,20.00
2019-04-06T14:51:01.818Z,20.67
2019-04-06T14:53:40.716Z,20.35
2019-04-06T14:56:35.558Z,20.09
2019-04-06T14:59:37.325Z,21.42
2019-04-06T15:02:16.658Z,21.84
2019-04-06T15:05:08.334Z,22.41
2019-04-06T15:08:06.742Z,21.46
2019-04-06T15:10:53.969Z,21.34
2019-04-06T15:13:51.390Z,21.71
2019-04-06T15:16:45.848Z,21.64
2019-04-06T15:19:28.343Z,22.06
2019-04-06T15:22:18.299Z,21.84
2019-04-06T15:25:22.451Z,21.79
2019-04-06T15:28:27.356Z,22.58
2019-04-06T15:31:19.718Z,22.72
2019-04-06T15:34:15.123Z,22.85
2019-04-06T15:37:11.144Z,21.96
2019-04-06T15:39:56.523Z,21.33
2019-04-06T15:42:47.429Z,21.97
2019-04-06T15:45:42.332Z,21.58
2019-04-06T15:48:41.322Z,22.35
2019-04-06T15:51:33.808Z,22.35
2019-04-06T15:54:25.805Z,22.59
2019-04-06T15:57:07.598Z,21.68
2019-04-06T15:59:50.438Z,21.18
2019-04-06T16:02:50.484Z,20.85
2019-04-06T16:05:32.328Z,21.40
2019-04-06T16:08:20.974Z,20.97
2019-04-06T16:11:04.338Z,20.77
2019-04-06T16:14:05.471Z,20.76
2019-04-06T16:16:56.711Z,20.46
2019-04-06T16:20:05.716Z,20.13
2019-04-06T16:22:55.683Z,20.18
2019-04-06T16:25:34.855Z,20.16
2019-04-06T16:28:15.886Z,20.13
2019-04-06T16:31:01.374Z,19.80
2019-04-06T16:33:46.993Z,19.42
2019-04-06T16:36:38.856Z,19.89
2019-04-06T16:39:27.788Z,19.50
2019-04-06T16:42:14.405Z,19.44
2019-04-06T16:45:02.140Z,19.03
2019-04-06T16:47:53.874Z,19.30
2019-04-06T16:50:52.194Z,18.97
2019-04-06T16:53:35.279Z,18.75
2019-04-06T16:56:23.014Z,18.35
2019-04-06T16:59:15.994Z,18.38
2019-04-06T17:01:57.177Z,17.96
2019-04-06T17:04:51.657Z,18.44
2019-04-06T17:07:31.251Z,18.23
2019-04-06T17:10:19.339Z,17.85
2019-04-06T17:13:11.006Z,17.91
2019-04-06T17:16:02.301Z,17.82
2019-04-06T17:18:49.305Z,17.90
2019-04-06T17:21:47.129Z,17.69
2019-04-06T17:24:49.529Z,17.68
2019-04-06T17:27:45.317Z,17.39
2019-04-06T17:30:40.177Z,17.34
2019-04-06T17:33:21.235Z,17.22
2019-04-06T17:36:03.445Z,17.02
2019-04-06T17:38:54.769Z,16.78
2019-04-06T17:41:53.146Z,16.77
2019-04-06T17:44:40.485Z,16.51
2019-04-06T17:47:30.365Z,16.58
2019-04-06T17:50:20.804Z,16.32
2019-04-06T17:53:05.850Z,16.19
2019-04-06T17:56:03.780Z,15.99
2019-04-06T17:59:12.072Z,15.79
2019-04-06T18:01:58.205Z,15.77
2019-04-06T18:04:50.602Z,15.59
2019-04-06T18:07:40.997Z,15.49
2019-04-06T18:10:42.581Z,15.31
2019-04-06T18:13:33.271Z,15.15
2019-04-06T18:16:07.039Z,14.97
2019-04-06T18:18:40.842Z,14.98
2019-04-06T18:21:15.402Z,14.78
2019-04-06T18:23:48.850Z,14.57
2019-04-06T18:26:22.317Z,14.48
2019-04-06T18:28:57.413Z,14.40
2019-04-06T18:31:48.391Z,14.31
2019-04-06T18:34:22.873Z,14.29
2019-04-06T18:37:24.520Z,14.27
2019-04-06T18:39:59.274Z,14.22
2019-04-06T18:42:32.313Z,14.14
2019-04-06T18:45:06.408Z,14.01
2019-04-06T18:47:40.606Z,14.04
2019-04-06T18:50:13.595Z,13.94
2019-04-06T18:52:47.535Z,13.85
2019-04-06T18:55:21.221Z,13.85
2019-04-06T18:57:55.328Z,13.73
2019-04-06T19:00:29.693Z,13.58
2019-04-06T19:03:12.046Z,13.46
2019-04-06T19:05:40.555Z,13.34
2019-04-06T19:08:14.695Z,13.36
2019-04-06T19:10:48.712Z,13.40
2019-04-06T19:13:21.830Z,13.34
2019-04-06T19:15:55.135Z,13.31
2019-04-06T19:18:29.444Z,13.27
2019-04-06T19:21:02.975Z,13.24
2019-04-06T19:23:36.238Z,13.09
2019-04-06T19:26:10.167Z,13.05
2019-04-06T19:28:44.701Z,13.01
2019-04-06T19:31:18.219Z,12.88
2019-04-06T19:33:51.647Z,12.92
2019-04-06T19:36:25.422Z,13.01
2019-04-06T19:38:58.701Z,12.68
2019-04-06T19:41:32.800Z,12.49
2019-04-06T19:44:06.723Z,12.47
2019-04-06T19:46:40.747Z,12.52
2019-04-06T19:49:15.275Z,12.40
2019-04-06T19:51:49.548Z,12.27
2019-04-06T19:54:23.582Z,12.13
2019-04-06T19:56:57.439Z,12.18
2019-04-06T19:59:31.358Z,12.32
2019-04-06T20:02:06.591Z,12.11
2019-04-06T20:04:40.221Z,12.04
2019-04-06T20:07:14.414Z,11.89
2019-04-06T20:10:10.582Z,11.83
2019-04-06T20:12:43.979Z,11.71
2019-04-06T20:15:15.587Z,11.65
2019-04-06T20:17:49.901Z,11.51
2019-04-06T20:20:23.245Z,11.48
2019-04-06T20:22:56.914Z,11.37
2019-04-06T20:25:30.667Z,11.32
2019-04-06T20:28:04.767Z,11.27
2019-04-06T20:30:37.782Z,11.20
2019-04-06T20:33:11.948Z,11.09
2019-04-06T20:35:46.381Z,11.04
2019-04-06T20:38:20.855Z,10.99
2019-04-06T20:40:54.261Z,10.94
2019-04-06T20:43:26.366Z,10.79
2019-04-06T20:45:59.351Z,10.60
2019-04-06T20:48:31.414Z,10.55
2019-04-06T20:51:04.112Z,10.54
2019-04-06T20:53:38.123Z,10.45
2019-04-06T20:56:12.905Z,10.46
2019-04-06T20:58:46.728Z,10.67
2019-04-06T21:01:20.874Z,10.70
2019-04-06T21:04:01.082Z,10.87
2019-04-06T21:06:29.355Z,11.24
2019-04-06T21:09:02.162Z,11.43
2019-04-06T21:11:34.386Z,11.19
2019-04-06T21:14:07.895Z,11.10
2019-04-06T21:16:42.744Z,11.03
2019-04-06T21:19:24.878Z,11.08
2019-04-06T21:21:59.662Z,10.92
2019-04-06T21:24:33.879Z,11.05
2019-04-06T21:27:06.667Z,10.69
2019-04-06T21:29:39.739Z,10.52
2019-04-06T21:32:12.805Z,10.33
2019-04-06T21:34:45.925Z,10.44
2019-04-06T21:37:20.059Z,10.67
2019-04-06T21:39:54.714Z,10.42
2019-04-06T21:42:28.646Z,10.22
2019-04-06T21:45:01.996Z,10.31
2019-04-06T21:47:35.350Z,10.51
2019-04-06T21:50:10.169Z,10.38
2019-04-06T21:52:44.065Z,10.10
2019-04-06T21:55:17.854Z,10.07
2019-04-06T21:57:51.980Z,10.18
2019-04-06T22:00:38.686Z,10.14
2019-04-06T22:03:12.301Z,10.15
2019-04-06T22:05:46.534Z,10.06
2019-04-06T22:08:19.633Z,9.94
2019-04-06T22:10:53.942Z,9.87
2019-04-06T22:13:27.135Z,9.78
2019-04-06T22:15:59.941Z,9.83
2019-04-06T22:18:33.970Z,9.80
2019-04-06T22:21:08.599Z,9.59
2019-04-06T22:23:44.389Z,9.37
2019-04-06T22:26:17.395Z,9.36
2019-04-06T22:28:51.401Z,9.34
2019-04-06T22:31:25.605Z,9.35
2019-04-06T22:33:59.423Z,9.09
2019-04-06T22:36:33.227Z,8.91
2019-04-06T22:39:09.139Z,8.79
2019-04-06T22:41:43.502Z,8.78
2019-04-06T22:44:17.936Z,8.75
2019-04-06T22:46:52.118Z,8.56
2019-04-06T22:49:25.542Z,8.42
2019-04-06T22:51:56.887Z,8.40
2019-04-06T22:54:28.980Z,8.50
2019-04-06T22:57:02.655Z,8.46
2019-04-06T22:59:36.162Z,8.59
2019-04-06T23:02:08.023Z,8.42
2019-04-06T23:04:50.619Z,8.37
2019-04-06T23:07:24.549Z,8.37
2019-04-06T23:09:58.749Z,8.28
2019-04-06T23:12:32.511Z,8.33
2019-04-06T23:15:07.047Z,8.38
2019-04-06T23:17:41.157Z,8.36
2019-04-06T23:20:15.045Z,8.19
2019-04-06T23:22:49.034Z,8.03
2019-04-06T23:25:22.853Z,8.01
2019-04-06T23:27:56.663Z,7.95
2019-04-06T23:30:30.451Z,7.94
2019-04-06T23:33:03.966Z,7.82
2019-04-06T23:35:36.940Z,7.73
2019-04-06T23:38:10.207Z,7.75
2019-04-06T23:40:44.284Z,7.69
2019-04-06T23:43:18.694Z,7.62
2019-04-06T23:45:52.905Z,7.85
2019-04-06T23:48:26.831Z,7.74
2019-04-06T23:51:00.481Z,8.21
2019-04-06T23:53:34.496Z,7.78
2019-04-06T23:56:08.223Z,7.71
2019-04-06T23:58:42.102Z,7.53
